Woodgate, Indiana
Current Conditions -  °F | °C
As of 6:53 AM on Thursday 29 Jan 2015 (Local Time) from KHUF Reporting Station
Clear Clear  
Wind Chill: 39°   Ceiling: Unl
Heat Index: 44°   Visibility: 10mi
Dew Point: 32°   Wind: 9mph
Humidity: 63%   Direction: 200°SSW
Pressure: 29.78"   Gusts: 20mph
Location:  39.3587°N, 87.4056°W
Report Text: KHUF 291153Z 20008G17KT 10SM CLR 07/00 A2978 RMK AO2 SLP087 60000 T00670000 10067 20033 56019
Loading
Personal Weather Stations






























Interactive Weather Map New forecast layout! Learn more

10-Day Weather Forecast

Advertisements
Track Severe Weather on mobile